Aeroporto :
LOGIN :

Iscrizione | Disclaimer

   EN    FR    IT 

 










Sommario :    VFR   VFR Marginale   IFR   IFR Intensivo   IFR Molto Intensivo
Visibilità : 
Base nubi : 
>= 8 km
>= 3000ft
5 / 8 km
1000 / 3000 ft
1500m / 5 km
500 / 1000 ft
800 / 1500m
200 / 500 ft
< 800m
< 200 ft
Simboli :   Temporali  Nebbia  Neve Forte  Precipitazioni Forti  Vento > 20 kt
SIGMETs :   Varie  Temporali  Ghiacco  Turbolenza  Onda orograficha  Ceneri Vulcaniche






- Altitudine del aeroporto : 147 ft
- Codice IATA : DUS


EDDL - Düsseldorf Int.

ULTIMO METAR :
  • 181220Z 17007KT 060V220 CAVOK 32/14 Q1012 NOSIG

METARs OBSOLETI :
  • 181150Z VRB06KT CAVOK 32/14 Q1012 NOSIG
  • 181120Z 14009KT 100V190 CAVOK 31/17 Q1012 NOSIG
  • 181050Z 13007KT 060V160 CAVOK 30/18 Q1012 NOSIG
  • 181020Z 09006KT 050V170 CAVOK 30/18 Q1012 NOSIG
  • 180950Z VRB03KT CAVOK 30/18 Q1012 NOSIG

TAF TAF EDDL
Valido dal 18 a 12 ore il 19 a 18 ore UTC


181100Z 1812/1918 10005KT CAVOK
BECMG 1812/1814 18008KT
PROB30
TEMPO 1814/1819 20020G45KT 3000 TSRAGR SCT040CB
BECMG 1906/1909 24010KT
BECMG 1913/1916 30008KT
BECMG 1916/1918 01007KT



MetMap, La meteo Aeronautica in un colpo d'occhio ! - Copyright ORBIFLY Dicembre 2007 - Disclaimer

ORBIFLY MET'MAP TEAM :

Programmazione e sviluppo : Alexandra Zaïnal
Concezione : Baudouin d'Aumeries
Aiuto per la programmazione : Marc-Olivier Méhu
Supporto tecnico e logistico : Manuel Goepfert
Aiuto per la traduzione : Arnaldo La Scala

Contatto : metmap@orbifly.com




FONTI E CREDITI :

   NOAA